This is the latest recevied weather packets stored in our database for station/object KN4DS-3. If no packets are shown the sender has not sent any weather packets the latest 1 day(s).
| Time | Temp. | Humidity | Pressure | Rain* | Wind** | Luminosity | Snow |
|---|---|---|---|---|---|---|---|
| 1778011504 | 28.89° C | 38% | 1014.7 hPa | 0 mm | 0.89 m/s, 211° | - | - |
| 1778011204 | 29.44° C | 40% | 1014.7 hPa | 0 mm | 0.89 m/s, 265° | - | - |
| 1778010904 | 28.89° C | 38% | 1015 hPa | 0 mm | 1.34 m/s, 120° | - | - |
| 1778010604 | 28.89° C | 37% | 1015.1 hPa | 0 mm | 0.89 m/s, 191° | - | - |
| 1778010304 | 28.89° C | 38% | 1015.1 hPa | 0 mm | 0.89 m/s, 106° | - | - |
| 1778010005 | 28.89° C | 39% | 1015.1 hPa | 0 mm | 0.45 m/s, 83° | - | - |
| 1778009704 | 28.89° C | 38% | 1015.2 hPa | 0 mm | 0.89 m/s, 271° | - | - |
| 1778009404 | 28.89° C | 38% | 1015.1 hPa | 0 mm | 0.45 m/s, 166° | - | - |
| 1778009104 | 28.89° C | 37% | 1015.2 hPa | 0 mm | 0.89 m/s, 189° | - | - |
| 1778008805 | 28.89° C | 38% | 1015.2 hPa | 0 mm | 1.34 m/s, 109° | - | - |
| 1778008504 | 28.89° C | 39% | 1015.2 hPa | 0 mm | 1.34 m/s, 144° | - | - |
| 1778008205 | 28.89° C | 40% | 1015.4 hPa | 0 mm | 0.89 m/s, 92° | - | - |
| 1778007904 | 28.89° C | 40% | 1015.4 hPa | 0 mm | 0.89 m/s, 206° | - | - |
| 1778007604 | 28.33° C | 39% | 1015.5 hPa | 0 mm | 1.34 m/s, 34° | - | - |
| 1778007304 | 28.89° C | 38% | 1015.7 hPa | 0 mm | 1.34 m/s, 257° | - | - |
| 1778007004 | 28.33° C | 37% | 1015.9 hPa | 0 mm | 0.89 m/s, 253° | - | - |
| 1778006704 | 28.89° C | 37% | 1016.1 hPa | 0 mm | 1.34 m/s, 253° | - | - |
| 1778006405 | 28.33° C | 37% | 1016.1 hPa | 0 mm | 0.89 m/s, 81° | - | - |
| 1778006105 | 28.89° C | 36% | 1016.4 hPa | 0 mm | 0.89 m/s, 210° | - | - |
| 1778005805 | 28.33° C | 37% | 1016.3 hPa | 0 mm | 0.89 m/s, 167° | - | - |
| 1778005504 | 28.33° C | 38% | 1016.4 hPa | 0 mm | 0.45 m/s, 262° | - | - |
| 1778005204 | 27.78° C | 40% | 1016.4 hPa | 0 mm | 0.89 m/s, 133° | - | - |
| 1778004904 | 28.33° C | 40% | 1016.3 hPa | 0 mm | 1.34 m/s, 264° | - | - |
| 1778004605 | 27.78° C | 39% | 1016.3 hPa | 0 mm | 0.89 m/s, 277° | - | - |
| 1778004304 | 27.78° C | 40% | 1016.5 hPa | 0 mm | 0.89 m/s, 200° | - | - |
* Rain latest hour (hover to see other rain measurements)
** Current wind speed in m/s (hover to see current wind gust speed)